PWSweather.com
Personal Weather Stations
Station Observations
SWHWX01
St AppolinardFR 38160

St AppolinardFR 38160

Lat: 45.191, Lon: 5.268

Elevation: 1460

Station Type: Davis Vantage Pro2 Plus

www.sweetwebhome.com/?show=wxindex

High Low Average
Temperature 48.5°F9.2°F 31.7°F-0.2°F 40.0°F4.4°F
Dew Point 41.6°F5.3°F 28.3°F-2.1°F 35.4°F1.9°F
Winds 11.6 mph -18.7 mph - Calm Calm 4.8 mph 7.7 mph
Wind Gusts 21.0 mph33.8 mph -- 7.9 mph12.7 mph
Humidity 91% 74% 84%
Pressure 30.17 in1021.70 in 30.00 in1015.90 in -
Precipitation 0.00 in0.00 in - -
Hour Temp Dew Point Humidity Winds Wind Gusts Pressure Precip Precip Rate Daily Precip Total
12:00 AM 34.7°F1.5°C 31.2°F-0.4°C 87% 1.8 mph N2.9 kmh N 2.0 mph3.2 kmh 30.17 in1021.7 mb - 0.00 in0.0 mm 0.00 in0.0 mm
12:30 AM 33.1°F0.6°C 29.9°F-1.2°C 88% 4.2 mph N6.8 kmh N 5.0 mph8.0 kmh 30.17 in1021.7 mb - 0.00 in0.0 mm 0.00 in0.0 mm
01:00 AM 33.4°F0.8°C 30.2°F-1.0°C 88% 2.2 mph N3.5 kmh N 3.0 mph4.8 kmh 30.16 in1021.3 mb - 0.00 in0.0 mm 0.00 in0.0 mm
01:30 AM 33.0°F0.6°C 30.4°F-0.9°C 90% 3.1 mph N5.0 kmh N 4.0 mph6.4 kmh 30.15 in1021.0 mb - 0.00 in0.0 mm 0.00 in0.0 mm
02:00 AM 33.7°F0.9°C 31.1°F-0.5°C 90% 1.3 mph N2.1 kmh N 2.0 mph3.2 kmh 30.14 in1020.7 mb - 0.00 in0.0 mm 0.00 in0.0 mm
02:30 AM 32.4°F0.2°C 29.5°F-1.4°C 89% Calm Calm -- 30.14 in1020.7 mb - 0.00 in0.0 mm 0.00 in0.0 mm
03:00 AM 33.2°F0.7°C 30.5°F-0.8°C 90% 1.6 mph N2.6 kmh N 2.0 mph3.2 kmh 30.14 in1020.7 mb - 0.00 in0.0 mm 0.00 in0.0 mm
03:30 AM 33.2°F0.7°C 30.3°F-0.9°C 89% 2.0 mph N3.2 kmh N 3.0 mph4.8 kmh 30.13 in1020.3 mb - 0.00 in0.0 mm 0.00 in0.0 mm
04:00 AM 33.3°F0.7°C 30.1°F-1.1°C 88% 2.3 mph N3.7 kmh N 3.0 mph4.8 kmh 30.13 in1020.3 mb - 0.00 in0.0 mm 0.00 in0.0 mm
04:30 AM 32.9°F0.5°C 29.5°F-1.4°C 87% 1.8 mph N2.9 kmh N 3.0 mph4.8 kmh 30.12 in1020.0 mb - 0.00 in0.0 mm 0.00 in0.0 mm
05:00 AM 33.3°F0.7°C 29.8°F-1.2°C 87% 2.4 mph N3.9 kmh N 3.0 mph4.8 kmh 30.12 in1020.0 mb - 0.00 in0.0 mm 0.00 in0.0 mm
05:30 AM 33.4°F0.8°C 29.9°F-1.2°C 87% 1.4 mph N2.3 kmh N 2.0 mph3.2 kmh 30.10 in1019.3 mb - 0.00 in0.0 mm 0.00 in0.0 mm
06:00 AM 34.0°F1.1°C 30.6°F-0.8°C 87% 2.8 mph N4.5 kmh N 4.0 mph6.4 kmh 30.10 in1019.3 mb - 0.00 in0.0 mm 0.00 in0.0 mm
06:30 AM 34.5°F1.4°C 31.0°F-0.6°C 87% 1.0 mph N1.6 kmh N 2.0 mph3.2 kmh 30.10 in1019.3 mb - 0.00 in0.0 mm 0.00 in0.0 mm
07:00 AM 32.0°F0.0°C 28.3°F-2.1°C 86% 0.6 mph N1.0 kmh N -- 30.10 in1019.3 mb - 0.00 in0.0 mm 0.00 in0.0 mm
07:30 AM 31.8°F-0.1°C 29.2°F-1.6°C 90% 1.6 mph N2.6 kmh N 2.0 mph3.2 kmh 30.10 in1019.3 mb - 0.00 in0.0 mm 0.00 in0.0 mm
08:00 AM 31.7°F-0.2°C 29.4°F-1.4°C 91% 3.1 mph N5.0 kmh N 4.0 mph6.4 kmh 30.10 in1019.3 mb - 0.00 in0.0 mm 0.00 in0.0 mm
08:30 AM 33.2°F0.7°C 30.9°F-0.6°C 91% Calm Calm -- 30.10 in1019.3 mb - 0.00 in0.0 mm 0.00 in0.0 mm
09:00 AM 34.8°F1.6°C 31.7°F-0.2°C 88% 1.6 mph N2.6 kmh N 4.0 mph6.4 kmh 30.10 in1019.3 mb - 0.00 in0.0 mm 0.00 in0.0 mm
09:30 AM 36.9°F2.7°C 32.2°F0.1°C 83% Calm Calm -- 30.10 in1019.3 mb - 0.00 in0.0 mm 0.00 in0.0 mm
10:00 AM 39.6°F4.2°C 34.0°F1.1°C 80% Calm Calm 3.0 mph4.8 kmh 30.10 in1019.3 mb - 0.00 in0.0 mm 0.00 in0.0 mm
10:30 AM 39.4°F4.1°C 32.4°F0.2°C 76% 0.9 mph NW1.4 kmh NW 3.0 mph4.8 kmh 30.10 in1019.3 mb - 0.00 in0.0 mm 0.00 in0.0 mm
11:00 AM 40.4°F4.7°C 32.8°F0.4°C 74% 6.7 mph WSW10.8 kmh WSW 9.0 mph14.5 kmh 30.10 in1019.3 mb - 0.00 in0.0 mm 0.00 in0.0 mm
11:30 AM 41.7°F5.4°C 34.4°F1.3°C 75% 5.7 mph WSW9.2 kmh WSW 9.0 mph14.5 kmh 30.10 in1019.3 mb - 0.00 in0.0 mm 0.00 in0.0 mm
12:00 PM 42.3°F5.7°C 35.3°F1.8°C 76% 5.5 mph WSW8.9 kmh WSW 12.0 mph19.3 kmh 30.08 in1018.6 mb - 0.00 in0.0 mm 0.00 in0.0 mm
12:30 PM 43.6°F6.4°C 37.2°F2.9°C 78% 7.0 mph SW11.3 kmh SW 12.0 mph19.3 kmh 30.07 in1018.3 mb - 0.00 in0.0 mm 0.00 in0.0 mm
01:00 PM 45.1°F7.3°C 38.0°F3.3°C 76% 9.1 mph SW14.6 kmh SW 15.0 mph24.1 kmh 30.05 in1017.6 mb - 0.00 in0.0 mm 0.00 in0.0 mm
01:30 PM 46.3°F7.9°C 39.1°F3.9°C 76% 8.1 mph SW13.0 kmh SW 11.0 mph17.7 kmh 30.03 in1016.9 mb - 0.00 in0.0 mm 0.00 in0.0 mm
02:00 PM 48.1°F8.9°C 40.9°F4.9°C 76% 10.6 mph SW17.1 kmh SW 14.0 mph22.5 kmh 30.02 in1016.6 mb - 0.00 in0.0 mm 0.00 in0.0 mm
02:30 PM 48.5°F9.2°C 41.6°F5.3°C 77% 9.7 mph WSW15.6 kmh WSW 21.0 mph33.8 kmh 30.02 in1016.6 mb - 0.00 in0.0 mm 0.00 in0.0 mm
03:00 PM 48.1°F8.9°C 41.2°F5.1°C 77% 11.6 mph SW18.7 kmh SW 18.0 mph29.0 kmh 30.01 in1016.3 mb - 0.00 in0.0 mm 0.00 in0.0 mm
03:30 PM 48.3°F9.1°C 41.4°F5.2°C 77% 8.4 mph WSW13.5 kmh WSW 12.0 mph19.3 kmh 30.00 in1015.9 mb - 0.00 in0.0 mm 0.00 in0.0 mm
04:00 PM 47.9°F8.8°C 41.4°F5.2°C 78% 7.8 mph SW12.6 kmh SW 18.0 mph29.0 kmh 30.00 in1015.9 mb - 0.00 in0.0 mm 0.00 in0.0 mm
04:30 PM 47.4°F8.6°C 41.2°F5.1°C 79% 7.2 mph SW11.6 kmh SW 12.0 mph19.3 kmh 30.00 in1015.9 mb - 0.00 in0.0 mm 0.00 in0.0 mm
05:00 PM 46.6°F8.1°C 41.1°F5.1°C 81% 10.0 mph W16.1 kmh W 15.0 mph24.1 kmh 30.00 in1015.9 mb - 0.00 in0.0 mm 0.00 in0.0 mm
05:30 PM 46.0°F7.8°C 40.8°F4.9°C 82% 8.6 mph SW13.8 kmh SW 17.0 mph27.4 kmh 30.00 in1015.9 mb - 0.00 in0.0 mm 0.00 in0.0 mm
06:00 PM 45.8°F7.7°C 40.6°F4.8°C 82% 7.8 mph SW12.6 kmh SW 13.0 mph20.9 kmh 30.00 in1015.9 mb - 0.00 in0.0 mm 0.00 in0.0 mm
06:30 PM 45.2°F7.3°C 40.3°F4.6°C 83% 10.2 mph S16.4 kmh S 18.0 mph29.0 kmh 30.00 in1015.9 mb - 0.00 in0.0 mm 0.00 in0.0 mm
07:00 PM 44.6°F7.0°C 40.1°F4.5°C 84% 7.7 mph SW12.4 kmh SW 14.0 mph22.5 kmh 30.00 in1015.9 mb - 0.00 in0.0 mm 0.00 in0.0 mm
07:30 PM 44.7°F7.1°C 40.2°F4.6°C 84% 3.5 mph WSW5.6 kmh WSW 13.0 mph20.9 kmh 30.01 in1016.3 mb - 0.00 in0.0 mm 0.00 in0.0 mm
08:00 PM 44.5°F6.9°C 40.3°F4.6°C 85% 5.8 mph WSW9.3 kmh WSW 8.0 mph12.9 kmh 30.01 in1016.3 mb - 0.00 in0.0 mm 0.00 in0.0 mm
08:30 PM 44.4°F6.9°C 40.2°F4.6°C 85% 6.2 mph WSW10.0 kmh WSW 9.0 mph14.5 kmh 30.01 in1016.3 mb - 0.00 in0.0 mm 0.00 in0.0 mm
09:00 PM 44.2°F6.8°C 40.0°F4.4°C 85% 4.2 mph SW6.8 kmh SW 8.0 mph12.9 kmh 30.01 in1016.3 mb - 0.00 in0.0 mm 0.00 in0.0 mm
09:30 PM 44.1°F6.7°C 40.2°F4.6°C 86% 6.7 mph WSW10.8 kmh WSW 12.0 mph19.3 kmh 30.02 in1016.6 mb - 0.00 in0.0 mm 0.00 in0.0 mm
10:00 PM 44.2°F6.8°C 40.3°F4.6°C 86% 9.0 mph SW14.5 kmh SW 12.0 mph19.3 kmh 30.03 in1016.9 mb - 0.00 in0.0 mm 0.00 in0.0 mm
10:30 PM 43.9°F6.6°C 40.0°F4.4°C 86% 3.0 mph SW4.8 kmh SW 3.0 mph4.8 kmh 30.03 in1016.9 mb - 0.00 in0.0 mm 0.00 in0.0 mm
11:00 PM 43.8°F6.6°C 40.5°F4.7°C 88% 7.0 mph SW11.3 kmh SW 11.0 mph17.7 kmh 30.03 in1016.9 mb - 0.00 in0.0 mm 0.00 in0.0 mm
11:30 PM 42.9°F6.1°C 39.8°F4.3°C 89% 5.3 mph SW8.5 kmh SW 8.0 mph12.9 kmh 30.03 in1016.9 mb - 0.00 in0.0 mm 0.00 in0.0 mm